DLH3KA EDDW-EDDM
Flight info
| Callsign | DLH3KA |
|---|---|
| Flight time | 0h 57m |
| Altitude | 31000 |
| Route | NIE2M NIE Z88 SAS DCT KUMER DCT SODRO T703 LULAR T105 LANDU LAN26 |
| Aircraft | A320/M-SDE3FGHIRWY/LB1 |
Departure
| Time | 2026-05-07 08:03 |
|---|---|
| Airport | Bremen Airport (EDDW) |
Arrival
| Time | 2026-05-07 09:01 |
|---|---|
| Airport | Munich Airport (EDDM) |
| Time | Latitude | Longitude | Altitude | Speed | Heading |
|---|---|---|---|---|---|
| 2026-05-07 07:45 | 53.05109 | 8.78640 | 19 ft | 0 kts | 49° |
| 2026-05-07 07:56 | 53.05093 | 8.78610 | 19 ft | 4 kts | 50° |
| 2026-05-07 07:56 | 53.05076 | 8.78577 | 19 ft | 4 kts | 44° |
| 2026-05-07 07:56 | 53.05055 | 8.78553 | 20 ft | 4 kts | 357° |
| 2026-05-07 07:56 | 53.05047 | 8.78555 | 20 ft | 0 kts | 319° |
| 2026-05-07 07:58 | 53.05057 | 8.78540 | 20 ft | 5 kts | 319° |
| 2026-05-07 07:59 | 53.05096 | 8.78484 | 19 ft | 10 kts | 319° |
| 2026-05-07 07:59 | 53.05132 | 8.78426 | 19 ft | 11 kts | 310° |
| 2026-05-07 07:59 | 53.05166 | 8.78324 | 21 ft | 9 kts | 291° |
| 2026-05-07 07:59 | 53.05183 | 8.78224 | 19 ft | 9 kts | 285° |
| 2026-05-07 08:00 | 53.05196 | 8.78133 | 19 ft | 8 kts | 275° |
| 2026-05-07 08:00 | 53.05183 | 8.78054 | 19 ft | 7 kts | 245° |
| 2026-05-07 08:00 | 53.05159 | 8.77974 | 19 ft | 12 kts | 237° |
| 2026-05-07 08:00 | 53.05094 | 8.77851 | 19 ft | 14 kts | 227° |
| 2026-05-07 08:01 | 53.05031 | 8.77737 | 19 ft | 13 kts | 227° |
| 2026-05-07 08:01 | 53.04973 | 8.77633 | 19 ft | 12 kts | 227° |
| 2026-05-07 08:01 | 53.04919 | 8.77543 | 19 ft | 11 kts | 219° |
| 2026-05-07 08:01 | 53.04853 | 8.77484 | 19 ft | 13 kts | 201° |
| 2026-05-07 08:02 | 53.04755 | 8.77454 | 19 ft | 15 kts | 182° |
| 2026-05-07 08:02 | 53.04682 | 8.77477 | 21 ft | 10 kts | 152° |
| 2026-05-07 08:02 | 53.04660 | 8.77597 | 19 ft | 14 kts | 87° |
| 2026-05-07 08:02 | 53.04672 | 8.78050 | 19 ft | 76 kts | 88° |
| 2026-05-07 08:03 | 53.04698 | 8.79311 | 27 ft | 139 kts | 88° |
| 2026-05-07 08:03 | 53.04734 | 8.81009 | 617 ft | 150 kts | 87° |
| 2026-05-07 08:03 | 53.04772 | 8.82775 | 1442 ft | 154 kts | 87° |
| 2026-05-07 08:03 | 53.04826 | 8.84618 | 2042 ft | 165 kts | 86° |
| 2026-05-07 08:04 | 53.04661 | 8.86532 | 2598 ft | 178 kts | 117° |
| 2026-05-07 08:04 | 53.03942 | 8.88260 | 3228 ft | 183 kts | 122° |
| 2026-05-07 08:04 | 53.03003 | 8.89779 | 3808 ft | 195 kts | 142° |
| 2026-05-07 08:04 | 53.01853 | 8.91112 | 4319 ft | 209 kts | 141° |
| 2026-05-07 08:05 | 53.00596 | 8.92594 | 4767 ft | 234 kts | 141° |
| 2026-05-07 08:05 | 52.99201 | 8.94255 | 5248 ft | 257 kts | 141° |
| 2026-05-07 08:05 | 52.97714 | 8.96025 | 6088 ft | 266 kts | 142° |
| 2026-05-07 08:05 | 52.96210 | 8.97805 | 6981 ft | 271 kts | 142° |
| 2026-05-07 08:06 | 52.94659 | 8.99632 | 7861 ft | 276 kts | 142° |
| 2026-05-07 08:06 | 52.93077 | 9.01491 | 8748 ft | 281 kts | 142° |
| 2026-05-07 08:06 | 52.91460 | 9.03396 | 9619 ft | 287 kts | 142° |
| 2026-05-07 08:06 | 52.89810 | 9.05348 | 10325 ft | 298 kts | 143° |
| 2026-05-07 08:07 | 52.88049 | 9.07430 | 10635 ft | 322 kts | 143° |
| 2026-05-07 08:07 | 52.86161 | 9.09655 | 10971 ft | 343 kts | 143° |
| 2026-05-07 08:07 | 52.84190 | 9.11969 | 11633 ft | 351 kts | 144° |
| 2026-05-07 08:07 | 52.82201 | 9.14296 | 12380 ft | 355 kts | 144° |
| 2026-05-07 08:08 | 52.80164 | 9.16677 | 13137 ft | 360 kts | 144° |
| 2026-05-07 08:08 | 52.78109 | 9.19082 | 13916 ft | 364 kts | 144° |
| 2026-05-07 08:08 | 52.76027 | 9.21521 | 14590 ft | 368 kts | 144° |
| 2026-05-07 08:08 | 52.73930 | 9.23978 | 15287 ft | 371 kts | 144° |
| 2026-05-07 08:09 | 52.71813 | 9.26454 | 15971 ft | 374 kts | 145° |
| 2026-05-07 08:09 | 52.69696 | 9.28920 | 16653 ft | 378 kts | 145° |
| 2026-05-07 08:09 | 52.67531 | 9.31436 | 17330 ft | 381 kts | 145° |
| 2026-05-07 08:09 | 52.65346 | 9.33975 | 18010 ft | 385 kts | 145° |
| 2026-05-07 08:10 | 52.63143 | 9.36534 | 18613 ft | 388 kts | 145° |
| 2026-05-07 08:10 | 52.60960 | 9.39202 | 19181 ft | 391 kts | 142° |
| 2026-05-07 08:10 | 52.58858 | 9.42002 | 19735 ft | 394 kts | 141° |
| 2026-05-07 08:10 | 52.56761 | 9.44941 | 20292 ft | 397 kts | 140° |
| 2026-05-07 08:11 | 52.54669 | 9.47929 | 20851 ft | 400 kts | 140° |
| 2026-05-07 08:11 | 52.52553 | 9.50943 | 21410 ft | 403 kts | 140° |
| 2026-05-07 08:11 | 52.50410 | 9.53952 | 21933 ft | 405 kts | 141° |
| 2026-05-07 08:11 | 52.48246 | 9.56949 | 22494 ft | 408 kts | 141° |
| 2026-05-07 08:12 | 52.46058 | 9.59945 | 23025 ft | 411 kts | 141° |
| 2026-05-07 08:12 | 52.43842 | 9.62963 | 23539 ft | 413 kts | 141° |
| 2026-05-07 08:12 | 52.41625 | 9.65977 | 23980 ft | 416 kts | 141° |
| 2026-05-07 08:12 | 52.39385 | 9.69018 | 24410 ft | 418 kts | 141° |
| 2026-05-07 08:13 | 52.37132 | 9.72069 | 24838 ft | 420 kts | 141° |
| 2026-05-07 08:13 | 52.34904 | 9.75087 | 25257 ft | 422 kts | 141° |
| 2026-05-07 08:13 | 52.32640 | 9.78159 | 25672 ft | 424 kts | 141° |
| 2026-05-07 08:13 | 52.30358 | 9.81250 | 26084 ft | 426 kts | 141° |
| 2026-05-07 08:14 | 52.28063 | 9.84351 | 26482 ft | 428 kts | 141° |
| 2026-05-07 08:14 | 52.25758 | 9.87464 | 26897 ft | 429 kts | 142° |
| 2026-05-07 08:14 | 52.23322 | 9.90294 | 27279 ft | 431 kts | 148° |
| 2026-05-07 08:14 | 52.20807 | 9.92993 | 27680 ft | 432 kts | 148° |
| 2026-05-07 08:15 | 52.18319 | 9.95655 | 28066 ft | 434 kts | 148° |
| 2026-05-07 08:15 | 52.15784 | 9.98358 | 28434 ft | 436 kts | 148° |
| 2026-05-07 08:15 | 52.13233 | 10.01076 | 28799 ft | 438 kts | 148° |
| 2026-05-07 08:15 | 52.10672 | 10.03801 | 29161 ft | 440 kts | 148° |
| 2026-05-07 08:16 | 52.08105 | 10.06529 | 29527 ft | 441 kts | 147° |
| 2026-05-07 08:16 | 52.05526 | 10.09275 | 29877 ft | 443 kts | 147° |
| 2026-05-07 08:16 | 52.02937 | 10.12028 | 30191 ft | 445 kts | 147° |
| 2026-05-07 08:16 | 52.00341 | 10.14777 | 30466 ft | 446 kts | 148° |
| 2026-05-07 08:17 | 51.97740 | 10.17520 | 30825 ft | 445 kts | 148° |
| 2026-05-07 08:17 | 51.95166 | 10.20238 | 30954 ft | 443 kts | 148° |
| 2026-05-07 08:17 | 51.92608 | 10.22945 | 30990 ft | 436 kts | 148° |
| 2026-05-07 08:18 | 51.87545 | 10.28288 | 30977 ft | 432 kts | 148° |
| 2026-05-07 08:18 | 51.82522 | 10.33557 | 30974 ft | 431 kts | 148° |
| 2026-05-07 08:19 | 51.77480 | 10.38830 | 30974 ft | 431 kts | 148° |
| 2026-05-07 08:19 | 51.72441 | 10.44092 | 30978 ft | 430 kts | 148° |
| 2026-05-07 08:20 | 51.67439 | 10.49304 | 30967 ft | 429 kts | 147° |
| 2026-05-07 08:20 | 51.62407 | 10.54520 | 30974 ft | 428 kts | 147° |
| 2026-05-07 08:21 | 51.57383 | 10.59722 | 30980 ft | 429 kts | 147° |
| 2026-05-07 08:21 | 51.52407 | 10.64914 | 30970 ft | 428 kts | 146° |
| 2026-05-07 08:22 | 51.47526 | 10.70393 | 30978 ft | 426 kts | 144° |
| 2026-05-07 08:22 | 51.42729 | 10.75993 | 30975 ft | 425 kts | 143° |
| 2026-05-07 08:23 | 51.37923 | 10.81538 | 30958 ft | 424 kts | 144° |
| 2026-05-07 08:23 | 51.33122 | 10.86982 | 30950 ft | 424 kts | 144° |
| 2026-05-07 08:24 | 51.28285 | 10.92418 | 30948 ft | 424 kts | 144° |
| 2026-05-07 08:24 | 51.23447 | 10.97849 | 30942 ft | 424 kts | 144° |
| 2026-05-07 08:25 | 51.18645 | 11.03237 | 30937 ft | 424 kts | 144° |
| 2026-05-07 08:25 | 51.13813 | 11.08661 | 30931 ft | 425 kts | 144° |
| 2026-05-07 08:26 | 51.06549 | 11.16793 | 30929 ft | 425 kts | 144° |
| 2026-05-07 08:26 | 51.01727 | 11.22156 | 30930 ft | 425 kts | 144° |
| 2026-05-07 08:27 | 50.96876 | 11.27541 | 30932 ft | 426 kts | 144° |
| 2026-05-07 08:27 | 50.92005 | 11.32937 | 30931 ft | 426 kts | 144° |
| 2026-05-07 08:28 | 50.87148 | 11.38322 | 30924 ft | 425 kts | 145° |
| 2026-05-07 08:28 | 50.82273 | 11.43689 | 30922 ft | 426 kts | 145° |
| 2026-05-07 08:29 | 50.77424 | 11.49020 | 30918 ft | 425 kts | 145° |
| 2026-05-07 08:29 | 50.72577 | 11.54338 | 30916 ft | 422 kts | 145° |
| 2026-05-07 08:30 | 50.67756 | 11.59621 | 30905 ft | 424 kts | 146° |
| 2026-05-07 08:30 | 50.62892 | 11.64930 | 30894 ft | 425 kts | 146° |
| 2026-05-07 08:31 | 50.58006 | 11.70225 | 30897 ft | 425 kts | 147° |
| 2026-05-07 08:31 | 50.53152 | 11.75479 | 30898 ft | 426 kts | 147° |
| 2026-05-07 08:32 | 50.49061 | 11.79912 | 30903 ft | 426 kts | 147° |
| 2026-05-07 08:32 | 50.43956 | 11.84449 | 30903 ft | 424 kts | 158° |
| 2026-05-07 08:33 | 50.38506 | 11.88129 | 30920 ft | 426 kts | 158° |
| 2026-05-07 08:33 | 50.33064 | 11.91794 | 30939 ft | 426 kts | 158° |
| 2026-05-07 08:34 | 50.27631 | 11.95441 | 30929 ft | 422 kts | 158° |
| 2026-05-07 08:34 | 50.22280 | 11.99052 | 30910 ft | 421 kts | 158° |
| 2026-05-07 08:35 | 50.16870 | 12.02683 | 30913 ft | 421 kts | 158° |
| 2026-05-07 08:35 | 50.11492 | 12.06270 | 30901 ft | 421 kts | 158° |
| 2026-05-07 08:36 | 50.06130 | 12.09875 | 30908 ft | 420 kts | 158° |
| 2026-05-07 08:36 | 50.00737 | 12.13494 | 30912 ft | 422 kts | 159° |
| 2026-05-07 08:37 | 49.95335 | 12.17086 | 30937 ft | 422 kts | 159° |
| 2026-05-07 08:37 | 49.89944 | 12.20654 | 30942 ft | 418 kts | 159° |
| 2026-05-07 08:38 | 49.84569 | 12.24194 | 30934 ft | 419 kts | 159° |
| 2026-05-07 08:38 | 49.79214 | 12.27720 | 30944 ft | 420 kts | 159° |
| 2026-05-07 08:39 | 49.73849 | 12.31269 | 30951 ft | 419 kts | 158° |
| 2026-05-07 08:39 | 49.71278 | 12.33464 | 30677 ft | 424 kts | 149° |
| 2026-05-07 08:39 | 49.68885 | 12.36204 | 30112 ft | 430 kts | 146° |
| 2026-05-07 08:40 | 49.66505 | 12.39024 | 29465 ft | 431 kts | 146° |
| 2026-05-07 08:40 | 49.64105 | 12.41845 | 28800 ft | 433 kts | 146° |
| 2026-05-07 08:40 | 49.61726 | 12.44631 | 28161 ft | 435 kts | 146° |
| 2026-05-07 08:40 | 49.59303 | 12.47449 | 27535 ft | 437 kts | 146° |
| 2026-05-07 08:41 | 49.56873 | 12.50266 | 26913 ft | 434 kts | 146° |
| 2026-05-07 08:41 | 49.54459 | 12.53063 | 26326 ft | 431 kts | 146° |
| 2026-05-07 08:41 | 49.52079 | 12.55826 | 25755 ft | 424 kts | 145° |
| 2026-05-07 08:41 | 49.49738 | 12.58548 | 25262 ft | 419 kts | 145° |
| 2026-05-07 08:42 | 49.47414 | 12.61243 | 24761 ft | 417 kts | 145° |
| 2026-05-07 08:42 | 49.45094 | 12.63930 | 24281 ft | 414 kts | 145° |
| 2026-05-07 08:42 | 49.42889 | 12.66684 | 23799 ft | 414 kts | 139° |
| 2026-05-07 08:42 | 49.40722 | 12.69566 | 23293 ft | 409 kts | 148° |
| 2026-05-07 08:43 | 49.38205 | 12.71520 | 22741 ft | 403 kts | 163° |
| 2026-05-07 08:43 | 49.35468 | 12.72406 | 22191 ft | 399 kts | 176° |
| 2026-05-07 08:43 | 49.32712 | 12.72281 | 21656 ft | 395 kts | 189° |
| 2026-05-07 08:43 | 49.30064 | 12.71198 | 21129 ft | 392 kts | 202° |
| 2026-05-07 08:44 | 49.27578 | 12.69473 | 20611 ft | 390 kts | 204° |
| 2026-05-07 08:44 | 49.25119 | 12.67730 | 20098 ft | 388 kts | 204° |
| 2026-05-07 08:44 | 49.22677 | 12.65995 | 19605 ft | 385 kts | 204° |
| 2026-05-07 08:44 | 49.20251 | 12.64268 | 19116 ft | 383 kts | 204° |
| 2026-05-07 08:45 | 49.17870 | 12.62563 | 18637 ft | 381 kts | 205° |
| 2026-05-07 08:45 | 49.15477 | 12.60845 | 18144 ft | 378 kts | 205° |
| 2026-05-07 08:45 | 49.13100 | 12.59139 | 17602 ft | 376 kts | 205° |
| 2026-05-07 08:45 | 49.10745 | 12.57449 | 17088 ft | 372 kts | 205° |
| 2026-05-07 08:46 | 49.08404 | 12.55775 | 16594 ft | 369 kts | 205° |
| 2026-05-07 08:46 | 49.06088 | 12.54125 | 16095 ft | 365 kts | 205° |
| 2026-05-07 08:46 | 49.03791 | 12.52495 | 15612 ft | 362 kts | 205° |
| 2026-05-07 08:46 | 49.01508 | 12.50869 | 15129 ft | 359 kts | 206° |
| 2026-05-07 08:47 | 48.99261 | 12.49263 | 14665 ft | 356 kts | 206° |
| 2026-05-07 08:47 | 48.97052 | 12.47679 | 14206 ft | 353 kts | 206° |
| 2026-05-07 08:47 | 48.94836 | 12.46088 | 13742 ft | 349 kts | 206° |
| 2026-05-07 08:47 | 48.92649 | 12.44528 | 13234 ft | 345 kts | 206° |
| 2026-05-07 08:48 | 48.90484 | 12.42986 | 12725 ft | 341 kts | 206° |
| 2026-05-07 08:48 | 48.88349 | 12.41469 | 12230 ft | 336 kts | 206° |
| 2026-05-07 08:48 | 48.86241 | 12.39973 | 11740 ft | 332 kts | 207° |
| 2026-05-07 08:48 | 48.84157 | 12.38495 | 11257 ft | 327 kts | 207° |
| 2026-05-07 08:49 | 48.82105 | 12.37038 | 10774 ft | 323 kts | 207° |
| 2026-05-07 08:49 | 48.80094 | 12.35608 | 10319 ft | 320 kts | 207° |
| 2026-05-07 08:49 | 48.78013 | 12.34453 | 9924 ft | 318 kts | 197° |
| 2026-05-07 08:49 | 48.75856 | 12.33635 | 9629 ft | 318 kts | 197° |
| 2026-05-07 08:50 | 48.73719 | 12.32812 | 9339 ft | 317 kts | 197° |
| 2026-05-07 08:50 | 48.71599 | 12.31993 | 9058 ft | 308 kts | 197° |
| 2026-05-07 08:50 | 48.69558 | 12.31202 | 8823 ft | 298 kts | 197° |
| 2026-05-07 08:50 | 48.67601 | 12.30442 | 8592 ft | 289 kts | 197° |
| 2026-05-07 08:51 | 48.65676 | 12.29699 | 8358 ft | 281 kts | 197° |
| 2026-05-07 08:51 | 48.63802 | 12.28982 | 8130 ft | 273 kts | 197° |
| 2026-05-07 08:51 | 48.61972 | 12.28281 | 7919 ft | 269 kts | 197° |
| 2026-05-07 08:51 | 48.60155 | 12.27585 | 7723 ft | 268 kts | 197° |
| 2026-05-07 08:52 | 48.58340 | 12.26889 | 7515 ft | 268 kts | 197° |
| 2026-05-07 08:52 | 48.56559 | 12.26209 | 7316 ft | 267 kts | 197° |
| 2026-05-07 08:52 | 48.54754 | 12.25514 | 7116 ft | 267 kts | 198° |
| 2026-05-07 08:52 | 48.52956 | 12.24819 | 6916 ft | 266 kts | 198° |
| 2026-05-07 08:53 | 48.51180 | 12.24137 | 6718 ft | 258 kts | 198° |
| 2026-05-07 08:53 | 48.49465 | 12.23485 | 6527 ft | 250 kts | 198° |
| 2026-05-07 08:53 | 48.47797 | 12.22857 | 6328 ft | 243 kts | 198° |
| 2026-05-07 08:53 | 48.46204 | 12.22255 | 6144 ft | 234 kts | 198° |
| 2026-05-07 08:54 | 48.44649 | 12.21663 | 5963 ft | 227 kts | 198° |
| 2026-05-07 08:54 | 48.43126 | 12.21084 | 5782 ft | 224 kts | 199° |
| 2026-05-07 08:54 | 48.41641 | 12.20405 | 5601 ft | 219 kts | 210° |
| 2026-05-07 08:54 | 48.40421 | 12.19146 | 5442 ft | 208 kts | 228° |
| 2026-05-07 08:55 | 48.39584 | 12.17428 | 5288 ft | 200 kts | 245° |
| 2026-05-07 08:55 | 48.39179 | 12.15490 | 5132 ft | 194 kts | 262° |
| 2026-05-07 08:55 | 48.39030 | 12.13496 | 5048 ft | 188 kts | 263° |
| 2026-05-07 08:55 | 48.38890 | 12.11583 | 5019 ft | 178 kts | 263° |
| 2026-05-07 08:56 | 48.38755 | 12.09748 | 5017 ft | 175 kts | 263° |
| 2026-05-07 08:56 | 48.38621 | 12.07924 | 4866 ft | 176 kts | 263° |
| 2026-05-07 08:56 | 48.38488 | 12.06105 | 4650 ft | 172 kts | 263° |
| 2026-05-07 08:56 | 48.38356 | 12.04329 | 4427 ft | 169 kts | 263° |
| 2026-05-07 08:57 | 48.38227 | 12.02592 | 4199 ft | 169 kts | 264° |
| 2026-05-07 08:57 | 48.38097 | 12.00845 | 3981 ft | 167 kts | 264° |
| 2026-05-07 08:57 | 48.37968 | 11.99107 | 3757 ft | 167 kts | 263° |
| 2026-05-07 08:57 | 48.37839 | 11.97364 | 3533 ft | 166 kts | 264° |
| 2026-05-07 08:58 | 48.37707 | 11.95631 | 3307 ft | 165 kts | 263° |
| 2026-05-07 08:58 | 48.37581 | 11.93956 | 3077 ft | 155 kts | 263° |
| 2026-05-07 08:58 | 48.37468 | 11.92413 | 2888 ft | 142 kts | 264° |
| 2026-05-07 08:58 | 48.37359 | 11.90999 | 2704 ft | 136 kts | 264° |
| 2026-05-07 08:59 | 48.37250 | 11.89609 | 2476 ft | 133 kts | 264° |
| 2026-05-07 08:59 | 48.37148 | 11.88231 | 2305 ft | 132 kts | 264° |
| 2026-05-07 08:59 | 48.37060 | 11.86861 | 2130 ft | 132 kts | 262° |
| 2026-05-07 08:59 | 48.36948 | 11.85489 | 1961 ft | 132 kts | 260° |
| 2026-05-07 09:00 | 48.36833 | 11.84141 | 1805 ft | 131 kts | 263° |
| 2026-05-07 09:00 | 48.36744 | 11.82779 | 1616 ft | 130 kts | 261° |
| 2026-05-07 09:00 | 48.36642 | 11.81474 | 1477 ft | 116 kts | 262° |
| 2026-05-07 09:00 | 48.36560 | 11.80490 | 1483 ft | 71 kts | 263° |
| 2026-05-07 09:01 | 48.36519 | 11.79964 | 1482 ft | 24 kts | 263° |
| 2026-05-07 09:01 | 48.36470 | 11.79747 | 1477 ft | 22 kts | 236° |
| 2026-05-07 09:01 | 48.36396 | 11.79593 | 1481 ft | 17 kts | 233° |
| 2026-05-07 09:01 | 48.36337 | 11.79473 | 1471 ft | 13 kts | 233° |
| 2026-05-07 09:02 | 48.36279 | 11.79355 | 1471 ft | 15 kts | 233° |
| 2026-05-07 09:02 | 48.36185 | 11.79297 | 1480 ft | 16 kts | 179° |
| 2026-05-07 09:02 | 48.36074 | 11.79318 | 1473 ft | 14 kts | 172° |
| 2026-05-07 09:02 | 48.35986 | 11.79335 | 1486 ft | 10 kts | 173° |
| 2026-05-07 09:03 | 48.35917 | 11.79361 | 1476 ft | 10 kts | 149° |
| 2026-05-07 09:03 | 48.35854 | 11.79385 | 1482 ft | 9 kts | 173° |
| 2026-05-07 09:03 | 48.35782 | 11.79397 | 1480 ft | 12 kts | 173° |
| 2026-05-07 09:03 | 48.35699 | 11.79411 | 1481 ft | 11 kts | 174° |
| 2026-05-07 09:04 | 48.35661 | 11.79409 | 1479 ft | 6 kts | 213° |
| 2026-05-07 09:04 | 48.35646 | 11.79311 | 1475 ft | 9 kts | 264° |
| 2026-05-07 09:04 | 48.35643 | 11.79275 | 1477 ft | 1 kts | 263° |
| 2026-05-07 09:04 | 48.35643 | 11.79273 | 1477 ft | 0 kts | 263° |